Time;durP1;ratioP1;P1;durP2;ratioP2;P2;SDS_P1;SDS_P2;PMS_P1;PMS_P2;Temp;Humidity;BMP_temperature;BMP_pressure;BME280_temperature;BME280_humidity;BME280_pressure;Samples;Min_cycle;Max_cycle;Signal;HPM_P1;HPM_P2
2023/07/29 00:01:07;;;;;;;7.85;6.28;;;;;;;20.18;53.08;94747.78;5074283;28;20624;-65
2023/07/29 00:03:34;;;;;;;13.95;9.77;;;;;;;20.12;53.84;94748.69;5074846;28;20181;-65
2023/07/29 00:06:02;;;;;;;12.93;8.38;;;;;;;20.03;54.26;94752.00;5075357;28;20243;-65
2023/07/29 00:08:30;;;;;;;11.18;8.48;;;;;;;20.01;54.49;94750.84;5075091;28;20227;-65
2023/07/29 00:11:01;;;;;;;9.73;7.65;;;;;;;20.02;54.27;94753.22;5074274;28;20196;-65
2023/07/29 00:13:33;;;;;;;6.28;5.68;;;;;;;19.93;54.03;94750.16;5074968;28;20633;-66
2023/07/29 00:16:01;;;;;;;7.10;5.32;;;;;;;19.90;54.71;94754.59;5075103;28;20185;-66
2023/07/29 00:18:33;;;;;;;5.82;5.22;;;;;;;19.88;54.60;94751.41;5075046;28;20182;-66
2023/07/29 00:21:01;;;;;;;5.60;4.95;;;;;;;19.89;54.50;94747.41;5073922;28;20664;-65
2023/07/29 00:23:30;;;;;;;5.88;5.03;;;;;;;19.93;54.83;94744.53;5074371;28;20209;-65
2023/07/29 00:26:00;;;;;;;4.93;4.53;;;;;;;19.95;54.53;94744.94;5075456;28;20177;-66
2023/07/29 00:28:28;;;;;;;5.03;4.35;;;;;;;19.89;54.71;94741.78;5074529;28;20201;-66
2023/07/29 00:30:56;;;;;;;5.40;4.90;;;;;;;19.90;54.77;94742.63;5075330;28;20197;-66
2023/07/29 00:33:24;;;;;;;6.22;5.20;;;;;;;19.89;54.81;94743.81;5074731;28;20212;-66
2023/07/29 00:35:54;;;;;;;8.10;5.50;;;;;;;19.78;55.35;94740.38;5074236;28;20192;-66
2023/07/29 00:38:22;;;;;;;6.82;6.18;;;;;;;19.67;55.71;94732.91;5074202;28;20197;-66
2023/07/29 00:40:49;;;;;;;6.88;5.65;;;;;;;19.61;55.67;94737.38;5074369;28;20201;-66
2023/07/29 00:43:16;;;;;;;5.50;5.00;;;;;;;19.57;55.54;94735.81;5075097;28;20258;-66
2023/07/29 00:45:45;;;;;;;5.28;4.80;;;;;;;19.52;56.05;94730.69;5074962;28;20189;-67
2023/07/29 00:48:13;;;;;;;5.32;4.10;;;;;;;19.46;55.04;94739.56;5075599;28;20189;-66
2023/07/29 00:50:41;;;;;;;4.65;4.25;;;;;;;19.45;55.59;94735.16;5074541;28;20212;-66
2023/07/29 00:53:11;;;;;;;4.88;4.05;;;;;;;19.45;55.44;94737.16;5074137;28;20221;-66
2023/07/29 00:55:39;;;;;;;5.03;4.25;;;;;;;19.44;55.72;94741.97;5074044;28;20205;-66
2023/07/29 00:58:07;;;;;;;5.25;4.45;;;;;;;19.47;55.26;94738.34;5074116;28;20193;-65
2023/07/29 01:00:38;;;;;;;5.05;3.95;;;;;;;19.45;55.52;94728.78;5074050;28;20205;-65
2023/07/29 01:03:06;;;;;;;4.47;4.07;;;;;;;19.39;56.10;94733.22;5075002;28;20217;-66
2023/07/29 01:05:57;;;;;;;4.10;3.80;;;;;;;19.37;55.88;94725.28;5074499;28;20200;-66
2023/07/29 01:08:35;;;;;;;6.07;3.75;;;;;;;19.41;55.74;94731.59;5074814;28;20585;-66
2023/07/29 01:11:14;;;;;;;5.90;4.03;;;;;;;19.40;55.98;94735.63;5074076;28;20219;-66
2023/07/29 01:13:46;;;;;;;4.57;4.00;;;;;;;19.36;55.98;94734.09;5073444;28;20653;-66
2023/07/29 01:16:18;;;;;;;4.47;4.07;;;;;;;19.30;56.76;94727.38;5073729;28;20193;-67
2023/07/29 01:18:49;;;;;;;4.60;4.20;;;;;;;19.23;56.61;94722.66;5074813;28;20193;-66
2023/07/29 01:21:18;;;;;;;4.50;4.10;;;;;;;19.20;56.57;94726.28;5074573;28;20255;-66
2023/07/29 01:23:49;;;;;;;5.75;4.30;;;;;;;19.17;56.36;94732.69;5073814;28;20205;-66
2023/07/29 01:26:15;;;;;;;5.72;4.28;;;;;;;19.13;56.62;94734.72;5073159;28;20517;-66
2023/07/29 01:28:43;;;;;;;5.38;4.25;;;;;;;19.10;56.96;94727.19;5074688;28;20185;-66
2023/07/29 01:31:16;;;;;;;6.75;4.95;;;;;;;19.07;56.71;94728.81;5074645;28;20185;-66
2023/07/29 01:33:54;;;;;;;5.53;4.40;;;;;;;19.04;56.85;94737.25;5074482;28;20213;-66
2023/07/29 01:36:23;;;;;;;5.43;4.50;;;;;;;19.06;56.70;94741.19;5074837;28;20243;-66
2023/07/29 01:38:56;;;;;;;4.82;4.40;;;;;;;19.10;56.67;94741.16;5073755;28;20578;-66
2023/07/29 01:41:25;;;;;;;6.38;4.50;;;;;;;19.11;56.68;94731.59;5075446;28;20605;-66
2023/07/29 01:43:53;;;;;;;5.50;4.53;;;;;;;19.10;57.14;94728.00;5077745;28;20628;-66
2023/07/29 01:46:21;;;;;;;5.22;4.57;;;;;;;19.08;57.08;94727.59;5077786;28;20189;-66
2023/07/29 01:48:49;;;;;;;4.72;4.38;;;;;;;19.05;57.46;94736.03;5077234;28;20519;-65
2023/07/29 01:51:17;;;;;;;7.10;4.72;;;;;;;19.03;57.78;94738.44;5077090;28;20223;-66
2023/07/29 01:53:45;;;;;;;6.30;4.70;;;;;;;18.96;57.51;94728.16;5077875;28;20205;-65
2023/07/29 01:56:18;;;;;;;5.53;4.85;;;;;;;18.93;57.26;94729.75;5077661;28;20205;-65
2023/07/29 01:58:46;;;;;;;5.68;5.18;;;;;;;18.91;57.31;94734.97;5077061;28;20197;-66
2023/07/29 02:01:15;;;;;;;6.22;5.63;;;;;;;18.93;57.13;94735.34;5077837;28;20189;-66
2023/07/29 02:03:43;;;;;;;5.95;5.15;;;;;;;18.92;57.22;94730.19;5076873;28;20204;-66
2023/07/29 02:06:11;;;;;;;8.75;5.22;;;;;;;18.84;57.40;94732.25;5077915;28;20197;-66
2023/07/29 02:08:40;;;;;;;5.65;5.00;;;;;;;18.81;57.70;94730.31;5077277;28;20201;-66
2023/07/29 02:11:09;;;;;;;4.80;4.38;;;;;;;18.80;57.70;94737.06;5077697;28;20522;-66
2023/07/29 02:13:38;;;;;;;4.85;4.35;;;;;;;18.77;57.75;94729.50;5076636;28;20228;-66
2023/07/29 02:16:06;;;;;;;6.45;4.72;;;;;;;18.75;57.47;94729.94;5077271;28;20185;-65
2023/07/29 02:18:34;;;;;;;4.80;4.32;;;;;;;18.75;57.60;94735.53;5077546;28;20585;-66
2023/07/29 02:21:02;;;;;;;5.53;4.60;;;;;;;18.75;57.42;94738.31;5076216;28;20248;-65
2023/07/29 02:23:33;;;;;;;5.35;4.25;;;;;;;18.73;57.60;94739.94;5077087;28;20193;-66
2023/07/29 02:26:00;;;;;;;5.60;4.78;;;;;;;18.71;58.05;94739.56;5077116;28;20197;-66
2023/07/29 02:28:30;;;;;;;5.07;4.57;;;;;;;18.71;58.13;94736.78;5076939;28;20624;-66
2023/07/29 02:31:16;;;;;;;7.05;4.78;;;;;;;18.68;58.15;94738.34;5076980;28;20193;-66
2023/07/29 02:33:44;;;;;;;5.95;4.97;;;;;;;18.65;58.29;94735.59;5077390;28;20277;-66
2023/07/29 02:36:13;;;;;;;7.53;5.28;;;;;;;18.60;58.34;94734.03;5076660;28;20204;-66
2023/07/29 02:38:41;;;;;;;6.60;5.50;;;;;;;18.57;58.73;94739.66;5077491;28;20200;-65
2023/07/29 02:41:12;;;;;;;8.32;5.35;;;;;;;18.51;58.69;94734.50;5076320;28;20251;-66
2023/07/29 02:43:42;;;;;;;8.75;5.32;;;;;;;18.51;58.36;94730.94;5076119;28;20286;-66
2023/07/29 02:46:11;;;;;;;7.57;6.20;;;;;;;18.47;57.95;94738.53;5076086;28;20185;-65
2023/07/29 02:48:38;;;;;;;8.15;6.22;;;;;;;18.47;58.34;94744.13;5077087;28;20205;-65
2023/07/29 02:51:06;;;;;;;6.78;6.18;;;;;;;18.47;58.20;94749.72;5075813;28;20197;-65
2023/07/29 02:53:36;;;;;;;7.85;7.05;;;;;;;18.47;57.96;94755.28;5075798;28;20208;-65
2023/07/29 02:56:06;;;;;;;11.07;7.07;;;;;;;18.43;58.55;94740.56;5076329;28;20201;-65
2023/07/29 02:58:34;;;;;;;9.27;7.00;;;;;;;18.43;58.62;94743.38;5076792;28;20522;-65
2023/07/29 03:01:01;;;;;;;8.57;6.80;;;;;;;18.44;58.49;94753.31;5076423;28;20212;-66
2023/07/29 03:03:34;;;;;;;7.63;6.30;;;;;;;18.47;58.54;94747.72;5076716;28;20177;-65
2023/07/29 03:06:02;;;;;;;6.50;5.70;;;;;;;18.50;58.66;94754.47;5075136;28;20540;-66
2023/07/29 03:08:30;;;;;;;6.05;5.22;;;;;;;18.51;58.73;94753.25;5077033;28;20215;-66
2023/07/29 03:10:58;;;;;;;5.30;4.88;;;;;;;18.50;58.20;94758.06;5075768;28;20201;-66
2023/07/29 03:13:28;;;;;;;7.47;5.47;;;;;;;18.48;58.46;94756.88;5076532;28;20212;-66
2023/07/29 03:16:05;;;;;;;8.18;5.10;;;;;;;18.35;59.08;94758.59;5075540;28;20205;-65
2023/07/29 03:18:38;;;;;;;5.35;4.85;;;;;;;18.32;59.39;94753.81;5075472;28;20245;-65
2023/07/29 03:21:06;;;;;;;6.28;4.85;;;;;;;18.34;59.12;94762.56;5075320;28;20233;-65
2023/07/29 03:23:36;;;;;;;7.68;5.43;;;;;;;18.35;59.16;94764.19;5076431;28;20188;-65
2023/07/29 03:26:09;;;;;;;5.18;4.70;;;;;;;18.35;59.37;94761.38;5076282;28;20272;-65
2023/07/29 03:28:42;;;;;;;5.82;4.65;;;;;;;18.35;59.26;94764.19;5076323;28;20193;-65
2023/07/29 03:31:11;;;;;;;4.90;4.40;;;;;;;18.31;59.53;94761.41;5075511;28;20197;-65
2023/07/29 03:33:44;;;;;;;5.05;4.50;;;;;;;18.24;59.39;94761.47;5074772;28;20208;-65
2023/07/29 03:36:12;;;;;;;6.68;4.80;;;;;;;18.22;59.76;94755.47;5075811;28;20278;-65
2023/07/29 03:38:40;;;;;;;6.25;4.60;;;;;;;18.23;59.64;94759.88;5075069;28;20207;-65
2023/07/29 03:41:08;;;;;;;5.07;4.57;;;;;;;18.26;59.46;94761.84;5075022;28;20269;-65
2023/07/29 03:43:36;;;;;;;6.45;5.18;;;;;;;18.25;59.70;94760.25;5075103;28;20197;-66
2023/07/29 03:46:10;;;;;;;5.50;4.68;;;;;;;18.27;59.45;94760.66;5074613;28;20193;-64
2023/07/29 03:48:44;;;;;;;5.60;4.68;;;;;;;18.26;59.48;94757.06;5075472;28;20221;-64
2023/07/29 03:51:13;;;;;;;6.25;5.03;;;;;;;18.30;59.43;94762.63;5075740;28;20314;-64
2023/07/29 03:53:41;;;;;;;5.63;4.15;;;;;;;18.31;59.45;94760.63;5074727;28;20201;-66
2023/07/29 03:56:12;;;;;;;6.97;4.70;;;;;;;18.28;59.29;94759.44;5075894;28;20209;-67
2023/07/29 03:58:40;;;;;;;4.75;4.35;;;;;;;18.28;59.35;94757.44;5075673;28;20189;-64
2023/07/29 04:01:08;;;;;;;5.95;4.47;;;;;;;18.30;59.45;94757.03;5073839;28;20208;-66
2023/07/29 04:03:36;;;;;;;5.00;4.50;;;;;;;18.34;59.19;94770.94;5074540;28;20189;-65
2023/07/29 04:06:10;;;;;;;6.13;4.57;;;;;;;18.36;59.03;94771.34;5075433;28;20177;-65
2023/07/29 04:08:39;;;;;;;5.25;4.70;;;;;;;18.37;59.08;94770.91;5075203;28;20203;-66
2023/07/29 04:11:08;;;;;;;5.57;4.80;;;;;;;18.38;58.75;94774.53;5074377;28;20258;-65
2023/07/29 04:13:39;;;;;;;4.82;4.30;;;;;;;18.40;58.81;94772.91;5074452;28;20220;-65
2023/07/29 04:16:10;;;;;;;5.40;4.13;;;;;;;18.42;58.50;94764.13;5074681;28;20224;-65
2023/07/29 04:18:38;;;;;;;5.05;4.18;;;;;;;18.39;58.00;94762.94;5075179;28;20181;-65
2023/07/29 04:21:08;;;;;;;11.30;10.35;;;;;;;18.37;58.22;94768.13;5073945;28;20239;-65
2023/07/29 04:23:53;;;;;;;38.20;35.10;;;;;;;18.33;57.85;94770.16;5134229;27;20544;-65
2023/07/29 04:26:21;;;;;;;28.38;26.10;;;;;;;18.37;57.93;94770.91;5132520;28;20199;-68
2023/07/29 04:28:50;;;;;;;18.52;16.92;;;;;;;18.42;58.16;94770.50;5133333;27;20175;-68
2023/07/29 04:31:19;;;;;;;18.40;16.65;;;;;;;18.42;58.18;94776.09;5133645;27;20187;-65
2023/07/29 04:33:47;;;;;;;16.30;14.70;;;;;;;18.43;58.33;94780.47;5133574;27;20179;-65
2023/07/29 04:36:17;;;;;;;9.15;8.35;;;;;;;18.48;58.06;94777.25;5133445;27;20252;-65
2023/07/29 04:38:45;;;;;;;7.30;6.68;;;;;;;18.51;58.04;94776.41;5132184;28;20606;-65
2023/07/29 04:41:17;;;;;;;6.15;5.18;;;;;;;18.53;57.91;94779.59;5133076;27;20191;-66
2023/07/29 04:43:49;;;;;;;5.30;4.80;;;;;;;18.54;58.13;94780.38;5133248;27;20234;-65
2023/07/29 04:46:19;;;;;;;5.10;4.60;;;;;;;18.52;58.62;94774.41;5132981;27;20184;-65
2023/07/29 04:48:49;;;;;;;4.88;4.47;;;;;;;18.54;58.89;94777.56;5133048;27;20226;-65
2023/07/29 04:51:17;;;;;;;5.25;4.22;;;;;;;18.56;58.60;94777.19;5132409;28;20218;-68
2023/07/29 04:53:45;;;;;;;4.68;4.28;;;;;;;18.52;58.64;94780.78;5133076;27;20190;-67
2023/07/29 04:56:18;;;;;;;4.07;3.88;;;;;;;18.51;58.71;94787.56;5133096;27;20187;-66
2023/07/29 04:58:46;;;;;;;4.47;4.07;;;;;;;18.51;58.89;94786.78;5132191;28;20202;-66
2023/07/29 05:01:14;;;;;;;4.70;4.20;;;;;;;18.51;59.00;94790.34;5132686;27;20218;-66
2023/07/29 05:03:42;;;;;;;4.70;4.30;;;;;;;18.55;59.17;94797.91;5131845;28;20252;-66
2023/07/29 05:06:10;;;;;;;5.55;5.05;;;;;;;18.62;59.44;94806.25;5132106;28;20195;-66
2023/07/29 05:08:37;;;;;;;4.68;4.28;;;;;;;18.67;59.26;94805.81;5132803;27;20252;-66
2023/07/29 05:11:05;;;;;;;4.90;4.47;;;;;;;18.71;59.52;94801.81;5132833;27;20203;-66
2023/07/29 05:13:35;;;;;;;5.18;4.68;;;;;;;18.75;59.09;94807.38;5131789;28;20195;-66
2023/07/29 05:16:04;;;;;;;5.40;4.90;;;;;;;18.80;58.81;94808.91;5132369;27;20512;-66
2023/07/29 05:18:34;;;;;;;5.75;5.35;;;;;;;18.79;58.12;94807.34;5132535;27;20275;-66
2023/07/29 05:21:05;;;;;;;5.63;5.13;;;;;;;18.82;58.66;94809.31;5132580;27;20191;-66
2023/07/29 05:23:33;;;;;;;5.20;4.70;;;;;;;18.89;58.46;94803.66;5130817;28;20235;-66
2023/07/29 05:26:01;;;;;;;5.47;4.97;;;;;;;18.95;58.18;94805.59;5132652;27;20215;-66
2023/07/29 05:28:33;;;;;;;8.85;5.68;;;;;;;18.98;58.12;94810.34;5131990;28;20199;-65
2023/07/29 05:31:06;;;;;;;5.80;5.25;;;;;;;19.04;58.21;94810.69;5131612;28;20195;-66
2023/07/29 05:33:36;;;;;;;5.68;5.18;;;;;;;19.08;57.72;94810.66;5127662;27;20256;-66
2023/07/29 05:36:05;;;;;;;5.78;5.20;;;;;;;19.12;58.00;94812.22;5117721;28;20227;-66
2023/07/29 05:38:33;;;;;;;5.85;5.25;;;;;;;19.16;57.83;94818.56;5117819;28;20241;-66
2023/07/29 05:41:01;;;;;;;7.53;4.97;;;;;;;19.20;58.38;94813.72;5117413;28;20199;-66
2023/07/29 05:43:28;;;;;;;6.63;5.32;;;;;;;19.23;57.99;94812.09;5117485;28;20211;-66
2023/07/29 05:45:56;;;;;;;5.65;5.18;;;;;;;19.25;58.09;94812.50;5118491;28;20191;-66
2023/07/29 05:48:26;;;;;;;6.15;5.38;;;;;;;19.23;57.92;94821.28;5134579;27;20196;-66
2023/07/29 05:50:56;;;;;;;6.00;5.40;;;;;;;19.28;58.39;94813.66;5117443;28;20192;-66
2023/07/29 05:53:24;;;;;;;7.53;6.63;;;;;;;19.36;58.13;94817.97;5118015;28;20236;-66
2023/07/29 05:55:51;;;;;;;6.40;5.80;;;;;;;19.44;58.30;94822.28;5118246;28;20264;-66
2023/07/29 05:58:19;;;;;;;5.88;5.28;;;;;;;19.52;57.77;94814.59;5118153;28;20607;-66
2023/07/29 06:00:46;;;;;;;7.07;5.63;;;;;;;19.57;57.60;94809.34;5118335;28;20200;-66
2023/07/29 06:03:13;;;;;;;6.70;6.20;;;;;;;19.62;57.02;94813.69;5116814;28;20203;-66
2023/07/29 06:05:43;;;;;;;6.22;5.60;;;;;;;19.64;56.21;94814.06;5116744;28;20208;-66
2023/07/29 06:08:11;;;;;;;6.07;5.38;;;;;;;19.67;55.55;94816.84;5117116;28;20195;-66
2023/07/29 06:10:39;;;;;;;5.38;4.88;;;;;;;19.70;56.58;94812.41;5117783;28;20184;-66
2023/07/29 06:13:07;;;;;;;6.65;5.55;;;;;;;19.73;56.04;94808.78;5116978;28;20200;-66
2023/07/29 06:15:36;;;;;;;7.90;6.90;;;;;;;19.78;55.97;94804.72;5117419;28;20200;-66
2023/07/29 06:18:03;;;;;;;6.22;5.60;;;;;;;19.82;55.29;94809.06;5117243;28;20207;-66
2023/07/29 06:20:34;;;;;;;5.97;5.47;;;;;;;19.85;54.90;94801.84;5117477;28;20509;-66
2023/07/29 06:23:05;;;;;;;6.20;5.60;;;;;;;19.85;54.16;94794.22;5116353;28;20654;-66
2023/07/29 06:25:33;;;;;;;5.10;4.70;;;;;;;19.91;54.55;94798.16;5117714;28;20534;-66
2023/07/29 06:28:00;;;;;;;5.07;4.47;;;;;;;19.96;54.58;94797.69;5117972;28;20180;-66
2023/07/29 06:30:29;;;;;;;5.90;5.30;;;;;;;20.00;54.25;94791.25;5116674;28;20211;-66
2023/07/29 06:32:59;;;;;;;5.18;4.68;;;;;;;20.03;54.71;94791.19;5117187;28;20208;-66
2023/07/29 06:35:27;;;;;;;5.97;5.45;;;;;;;20.11;54.14;94791.88;5116627;28;20245;-66
2023/07/29 06:37:55;;;;;;;5.03;4.63;;;;;;;20.16;53.76;94786.63;5116145;28;20604;-66
2023/07/29 06:40:25;;;;;;;5.63;5.13;;;;;;;20.20;53.84;94784.56;5116826;28;20200;-66
2023/07/29 06:42:52;;;;;;;6.75;5.95;;;;;;;20.27;54.45;94777.28;5117324;28;20273;-66
2023/07/29 06:45:20;;;;;;;6.57;5.45;;;;;;;20.33;54.40;94783.97;5115504;28;20188;-66
2023/07/29 06:47:48;;;;;;;5.60;5.10;;;;;;;20.38;54.71;94783.50;5117263;28;20190;-66
2023/07/29 06:50:17;;;;;;;9.00;5.47;;;;;;;20.45;54.48;94780.59;5116830;28;20195;-66
2023/07/29 06:52:47;;;;;;;5.97;5.43;;;;;;;20.52;53.44;94785.34;5116886;28;20207;-66
2023/07/29 06:55:15;;;;;;;5.43;4.93;;;;;;;20.58;53.90;94783.63;5116122;28;20196;-66
2023/07/29 06:57:44;;;;;;;5.25;4.85;;;;;;;20.60;53.73;94781.97;5115493;28;20208;-66
2023/07/29 07:00:12;;;;;;;5.57;5.07;;;;;;;20.66;53.24;94782.28;5117324;28;20176;-66
2023/07/29 07:02:41;;;;;;;5.25;4.80;;;;;;;20.68;52.62;94791.06;5116609;27;20191;-66
2023/07/29 07:05:08;;;;;;;6.43;5.55;;;;;;;20.72;53.13;94780.59;5115745;28;20195;-66
2023/07/29 07:07:37;;;;;;;6.55;5.93;;;;;;;20.79;53.04;94788.09;5115743;28;20203;-66
2023/07/29 07:10:07;;;;;;;5.57;5.07;;;;;;;20.85;53.25;94784.38;5115863;28;20294;-66
2023/07/29 07:12:37;;;;;;;6.10;5.60;;;;;;;20.91;53.06;94787.47;5116321;28;20195;-66
2023/07/29 07:15:09;;;;;;;5.68;5.28;;;;;;;20.97;53.02;94784.97;5115871;28;20196;-66
2023/07/29 07:17:37;;;;;;;8.80;5.53;;;;;;;21.04;52.76;94787.66;5114828;28;20218;-66
2023/07/29 07:20:09;;;;;;;6.03;5.53;;;;;;;21.11;52.60;94781.94;5116055;28;20196;-66
2023/07/29 07:22:37;;;;;;;9.15;5.90;;;;;;;21.13;52.01;94780.28;5115084;28;20236;-66
2023/07/29 07:25:09;;;;;;;6.13;5.53;;;;;;;21.15;51.94;94777.03;5115562;28;20199;-66
2023/07/29 07:27:38;;;;;;;5.95;5.43;;;;;;;21.19;51.75;94774.97;5109418;28;20215;-66
2023/07/29 07:30:10;;;;;;;5.78;5.20;;;;;;;21.28;52.27;94772.41;5115905;28;20188;-66
2023/07/29 07:32:38;;;;;;;6.05;4.95;;;;;;;21.33;52.52;94768.28;5115774;28;20203;-66
2023/07/29 07:35:06;;;;;;;5.30;4.90;;;;;;;21.36;52.22;94767.47;5116332;28;20199;-66
2023/07/29 07:37:36;;;;;;;6.95;5.43;;;;;;;21.41;52.18;94766.97;5116279;28;20249;-66
2023/07/29 07:40:05;;;;;;;6.68;6.13;;;;;;;21.54;51.98;94762.31;5115887;28;20284;-66
2023/07/29 07:42:33;;;;;;;6.25;5.57;;;;;;;21.71;51.85;94759.56;5116154;28;20196;-66
2023/07/29 07:45:01;;;;;;;6.60;5.18;;;;;;;21.77;50.76;94767.03;5116217;28;20204;-66
2023/07/29 07:47:34;;;;;;;4.95;4.50;;;;;;;21.78;50.71;94765.81;5115134;28;20266;-66
2023/07/29 07:50:02;;;;;;;5.40;4.90;;;;;;;21.82;51.18;94762.91;5115750;28;20573;-66
2023/07/29 07:52:30;;;;;;;5.25;4.85;;;;;;;21.85;51.44;94770.47;5115242;28;20200;-66
2023/07/29 07:54:58;;;;;;;5.55;5.05;;;;;;;21.91;52.30;94768.75;5115949;28;20243;-66
2023/07/29 07:57:26;;;;;;;5.40;4.90;;;;;;;22.00;51.38;94765.34;5114748;28;20603;-66
2023/07/29 07:59:54;;;;;;;5.15;4.70;;;;;;;22.06;50.99;94767.22;5115964;28;20198;-66
2023/07/29 08:02:22;;;;;;;5.25;4.75;;;;;;;22.14;51.28;94765.06;5115452;28;20199;-66
2023/07/29 08:04:52;;;;;;;6.45;4.82;;;;;;;22.30;51.52;94764.31;5114633;28;20208;-66
2023/07/29 08:07:23;;;;;;;4.70;4.40;;;;;;;22.41;51.45;94769.69;5114954;28;20259;-66
2023/07/29 08:09:51;;;;;;;4.55;4.10;;;;;;;22.49;50.77;94766.28;5115325;28;20207;-66
2023/07/29 08:12:20;;;;;;;7.80;4.55;;;;;;;22.58;50.64;94768.47;5115058;28;20207;-66
2023/07/29 08:14:48;;;;;;;5.70;5.10;;;;;;;22.64;49.36;94765.94;5114805;28;20191;-66
2023/07/29 08:17:17;;;;;;;4.68;4.28;;;;;;;22.67;49.56;94765.84;5114890;28;20586;-66
2023/07/29 08:19:45;;;;;;;4.43;4.03;;;;;;;22.75;49.09;94770.06;5114517;28;20607;-66
2023/07/29 08:22:14;;;;;;;5.25;4.68;;;;;;;22.88;49.96;94767.34;5114650;28;20235;-67
2023/07/29 08:24:42;;;;;;;5.07;4.68;;;;;;;23.04;48.73;94769.38;5114915;28;20239;-66
2023/07/29 08:27:12;;;;;;;5.38;4.88;;;;;;;23.09;48.27;94768.03;5114861;28;20614;-66
2023/07/29 08:29:39;;;;;;;5.00;4.60;;;;;;;23.19;47.99;94767.75;5114620;28;20204;-66
2023/07/29 08:32:08;;;;;;;5.95;4.30;;;;;;;23.33;48.29;94760.97;5115357;28;20195;-66
2023/07/29 08:34:35;;;;;;;5.25;4.60;;;;;;;23.45;48.53;94770.69;5114746;28;20203;-66
2023/07/29 08:37:03;;;;;;;4.30;3.90;;;;;;;23.64;47.48;94766.13;5115168;28;20203;-66
2023/07/29 08:39:33;;;;;;;6.13;5.57;;;;;;;23.89;46.08;94765.47;5115219;28;20195;-66
2023/07/29 08:42:05;;;;;;;6.95;5.47;;;;;;;24.00;45.20;94758.28;5115170;28;20203;-66
2023/07/29 08:44:40;;;;;;;5.15;4.68;;;;;;;24.11;45.08;94754.34;5114607;28;20216;-66
2023/07/29 08:47:08;;;;;;;5.57;4.90;;;;;;;24.23;43.55;94754.38;5115157;28;20563;-66
2023/07/29 08:49:35;;;;;;;3.47;3.17;;;;;;;24.32;42.29;94761.34;5115308;28;20215;-66
2023/07/29 08:52:04;;;;;;;5.10;3.25;;;;;;;24.31;42.43;94751.34;5114909;28;20194;-66
2023/07/29 08:54:37;;;;;;;4.15;3.72;;;;;;;24.31;42.42;94751.34;5115234;28;20180;-66
2023/07/29 08:57:08;;;;;;;4.55;3.95;;;;;;;24.29;42.56;94748.94;5114450;28;20184;-66
2023/07/29 09:00:14;;;;;;;4.65;3.88;;;;;;;24.26;42.41;94747.84;5114937;28;20192;-66
2023/07/29 09:03:19;;;;;;;4.65;3.97;;;;;;;24.34;43.37;94747.63;5072902;28;20212;-66
2023/07/29 09:06:25;;;;;;;3.22;3.00;;;;;;;24.37;41.40;94741.09;5055984;28;20201;-66
2023/07/29 09:09:33;;;;;;;3.40;3.20;;;;;;;24.46;43.72;94738.41;5057039;28;20307;-66
2023/07/29 09:12:39;;;;;;;4.10;3.70;;;;;;;24.87;42.89;94737.44;5059994;28;20200;-66
2023/07/29 09:15:47;;;;;;;3.60;3.30;;;;;;;25.09;40.08;94731.06;5059844;28;20212;-66
2023/07/29 09:18:53;;;;;;;3.60;3.30;;;;;;;25.27;41.01;94719.97;5076435;28;20291;-66
2023/07/29 09:21:58;;;;;;;4.07;3.10;;;;;;;25.28;39.29;94726.44;5059543;28;20563;-66
2023/07/29 09:25:06;;;;;;;3.67;3.38;;;;;;;25.30;39.94;94718.28;5076328;28;20216;-66
2023/07/29 09:28:12;;;;;;;3.28;2.97;;;;;;;25.57;37.94;94720.56;5076229;28;20398;-66
2023/07/29 09:31:17;;;;;;;3.17;2.63;;;;;;;26.00;37.86;94722.59;5076275;28;20196;-66
2023/07/29 09:34:22;;;;;;;3.22;2.92;;;;;;;26.21;37.59;94711.69;5076177;28;20236;-66
2023/07/29 09:37:26;;;;;;;2.60;2.40;;;;;;;26.31;37.39;94707.66;5059358;28;20200;-66
2023/07/29 09:40:31;;;;;;;2.72;2.30;;;;;;;26.50;37.24;94705.72;5084761;28;20622;-66
2023/07/29 09:43:36;;;;;;;2.70;2.30;;;;;;;26.66;36.34;94710.34;5117351;28;20200;-67
2023/07/29 09:46:40;;;;;;;3.05;2.50;;;;;;;26.88;35.33;94706.16;5117264;28;20198;-66
2023/07/29 09:49:45;;;;;;;2.92;2.72;;;;;;;26.97;35.04;94707.44;5117458;28;20199;-66
2023/07/29 09:52:50;;;;;;;2.40;2.30;;;;;;;27.06;34.94;94698.97;5118502;28;20188;-67
2023/07/29 09:55:56;;;;;;;2.80;2.35;;;;;;;27.23;34.86;94697.41;5117476;28;20187;-67
2023/07/29 09:59:02;;;;;;;2.55;2.35;;;;;;;27.19;34.46;94693.97;5117374;28;20210;-66
2023/07/29 10:01:39;;;;;;;3.67;3.38;;;;;;;27.33;34.64;94690.50;5117799;28;20235;-66
2023/07/29 10:04:07;;;;;;;2.78;2.58;;;;;;;27.42;35.08;94691.78;5117758;28;20221;-66
2023/07/29 10:06:35;;;;;;;4.15;2.58;;;;;;;27.46;34.12;94692.41;5118079;28;20184;-66
2023/07/29 10:09:05;;;;;;;2.92;2.70;;;;;;;27.47;34.90;94685.47;5117127;28;20199;-66
2023/07/29 10:11:36;;;;;;;3.75;2.42;;;;;;;27.50;34.51;94688.16;5116916;28;20276;-66
2023/07/29 10:14:04;;;;;;;2.03;1.80;;;;;;;27.50;34.54;94676.81;5117636;28;20217;-66
2023/07/29 10:16:40;;;;;;;2.45;2.25;;;;;;;27.59;33.57;94667.53;5116963;28;20198;-66
2023/07/29 10:19:12;;;;;;;3.88;3.47;;;;;;;27.62;33.83;94672.25;5116581;28;20218;-66
2023/07/29 10:21:44;;;;;;;3.45;2.38;;;;;;;27.89;33.00;94673.47;5116584;28;20199;-66
2023/07/29 10:24:17;;;;;;;2.58;2.10;;;;;;;27.88;35.46;94672.69;5117667;28;20210;-66
2023/07/29 10:26:50;;;;;;;1.80;1.70;;;;;;;27.94;32.36;94659.47;5116876;28;20199;-66
2023/07/29 10:29:22;;;;;;;1.70;1.60;;;;;;;27.94;32.09;94656.63;5116461;28;20257;-66
2023/07/29 10:32:00;;;;;;;2.00;1.90;;;;;;;27.91;32.41;94657.56;5117589;28;20192;-66
2023/07/29 10:34:28;;;;;;;2.10;2.00;;;;;;;27.97;33.25;94650.00;5116829;28;20195;-66
2023/07/29 10:36:57;;;;;;;2.40;2.20;;;;;;;28.13;33.00;94650.91;5116681;28;20207;-66
2023/07/29 10:39:25;;;;;;;2.40;2.20;;;;;;;28.27;32.07;94645.31;5116534;28;20195;-66
2023/07/29 10:41:57;;;;;;;2.42;2.28;;;;;;;28.28;33.22;94638.38;5116065;28;20298;-66
2023/07/29 10:44:51;;;;;;;2.75;2.25;;;;;;;28.37;32.66;94639.63;5117475;27;20223;-66
2023/07/29 10:47:24;;;;;;;2.28;1.90;;;;;;;28.46;31.76;94642.44;5116469;28;20219;-66
2023/07/29 10:49:54;;;;;;;2.30;2.10;;;;;;;28.50;32.34;94643.03;5116561;28;20202;-66
2023/07/29 10:52:41;;;;;;;2.00;1.80;;;;;;;28.61;32.77;94640.44;5116310;28;20294;-66
2023/07/29 10:55:27;;;;;;;2.75;2.00;;;;;;;28.74;31.90;94638.19;5116828;28;20592;-66
2023/07/29 10:58:13;;;;;;;2.60;1.90;;;;;;;28.97;30.30;94632.97;5116144;28;20197;-66
2023/07/29 11:00:40;;;;;;;1.90;1.80;;;;;;;28.99;31.50;94619.13;5116357;28;20206;-66
2023/07/29 11:03:10;;;;;;;2.00;1.90;;;;;;;28.97;30.29;94616.72;5116121;28;20215;-66
2023/07/29 11:05:47;;;;;;;3.30;2.67;;;;;;;28.99;30.70;94619.13;5115871;28;20204;-66
2023/07/29 11:08:23;;;;;;;3.22;2.80;;;;;;;28.98;30.46;94615.50;5116917;28;20176;-66
2023/07/29 11:11:07;;;;;;;1.92;1.83;;;;;;;29.08;30.35;94607.69;5115579;28;20195;-66
2023/07/29 11:13:35;;;;;;;1.83;1.73;;;;;;;29.09;29.98;94617.00;5115622;28;20203;-66
2023/07/29 11:16:03;;;;;;;1.95;1.75;;;;;;;29.14;30.35;94607.81;5116262;28;20195;-66
2023/07/29 11:18:36;;;;;;;2.22;2.00;;;;;;;29.23;28.99;94604.88;5115715;28;20188;-66
2023/07/29 11:21:04;;;;;;;2.17;1.98;;;;;;;29.35;28.65;94606.69;5116660;28;20260;-66
2023/07/29 11:23:34;;;;;;;1.83;1.73;;;;;;;29.36;27.71;94613.91;5116045;28;20235;-66
2023/07/29 11:26:05;;;;;;;1.80;1.70;;;;;;;29.32;29.59;94606.88;5115814;28;20187;-66
2023/07/29 11:28:38;;;;;;;2.53;2.33;;;;;;;29.41;28.56;94609.59;5115737;28;20252;-66
2023/07/29 11:31:06;;;;;;;2.55;2.22;;;;;;;29.43;30.62;94605.00;5115823;27;20192;-66
2023/07/29 11:33:43;;;;;;;1.88;1.75;;;;;;;29.56;28.50;94606.78;5116186;28;20272;-66
2023/07/29 11:36:20;;;;;;;2.35;1.77;;;;;;;29.60;27.79;94598.91;5116023;28;20203;-66
2023/07/29 11:38:48;;;;;;;1.55;1.42;;;;;;;29.67;28.33;94595.69;5116324;27;20179;-66
2023/07/29 11:41:21;;;;;;;1.98;1.88;;;;;;;29.71;27.71;94594.19;5115429;28;20257;-66
2023/07/29 11:43:48;;;;;;;1.95;1.60;;;;;;;29.81;28.82;94591.25;5116159;28;20184;-66
2023/07/29 11:46:19;;;;;;;2.85;1.80;;;;;;;29.90;29.37;94591.16;5115438;28;20195;-66
2023/07/29 11:48:47;;;;;;;2.30;1.95;;;;;;;29.92;27.78;94599.94;5115294;28;20577;-66
2023/07/29 11:51:14;;;;;;;2.00;1.70;;;;;;;29.86;27.67;94587.72;5115816;28;20600;-66
2023/07/29 11:53:43;;;;;;;2.00;1.88;;;;;;;29.93;27.90;94588.09;5115140;28;20191;-66
2023/07/29 11:56:16;;;;;;;1.98;1.80;;;;;;;30.03;25.79;94591.63;5116093;28;20199;-66
2023/07/29 11:58:47;;;;;;;1.90;1.80;;;;;;;30.07;26.58;94580.84;5115483;28;20295;-66